Time;durP1;ratioP1;P1;durP2;ratioP2;P2;SDS_P1;SDS_P2;PMS_P1;PMS_P2;Temp;Humidity;BMP_temperature;BMP_pressure;BME280_temperature;BME280_humidity;BME280_pressure;Samples;Min_cycle;Max_cycle;Signal;HPM_P1;HPM_P2
2022/04/16 00:00:18;;;;;;;30.57;17.85;;;;;;;5.34;100.00;100229.99;1797388;79;21185;-77
2022/04/16 00:03:25;;;;;;;26.68;17.35;;;;;;;5.32;100.00;100230.66;1790474;79;21180;-77
2022/04/16 00:06:30;;;;;;;21.40;15.25;;;;;;;5.30;100.00;100228.56;1774388;79;21696;-77
2022/04/16 00:09:37;;;;;;;22.00;15.60;;;;;;;5.27;100.00;100232.94;1784168;79;21184;-78
2022/04/16 00:12:43;;;;;;;22.70;15.75;;;;;;;5.23;100.00;100228.80;1771593;79;21172;-77
2022/04/16 00:15:57;;;;;;;21.42;14.33;;;;;;;5.16;100.00;100219.52;1771333;79;21192;-77
2022/04/16 00:19:01;;;;;;;25.00;14.35;;;;;;;5.08;100.00;100220.72;1792256;79;21190;-78
2022/04/16 00:22:10;;;;;;;20.88;14.13;;;;;;;5.01;100.00;100221.81;1798544;79;21189;-78
2022/04/16 00:25:16;;;;;;;24.10;15.53;;;;;;;4.96;100.00;100220.53;1779534;79;21177;-78
2022/04/16 00:28:22;;;;;;;22.50;14.90;;;;;;;4.92;100.00;100217.74;1793283;79;21166;-78
2022/04/16 00:31:28;;;;;;;20.75;15.05;;;;;;;4.90;100.00;100215.69;1788802;79;21192;-78
2022/04/16 00:34:34;;;;;;;27.32;17.10;;;;;;;4.90;100.00;100215.69;1790391;79;21221;-77
2022/04/16 00:37:42;;;;;;;22.37;14.55;;;;;;;4.90;100.00;100215.69;1795202;79;21721;-76
2022/04/16 00:40:47;;;;;;;21.12;13.62;;;;;;;4.90;100.00;100218.40;1792938;79;21161;-77
2022/04/16 00:43:53;;;;;;;18.98;13.25;;;;;;;4.87;100.00;100214.10;1781390;79;21224;-77
2022/04/16 00:46:59;;;;;;;18.65;13.43;;;;;;;4.85;100.00;100209.34;1785231;79;21228;-77
2022/04/16 00:50:05;;;;;;;20.72;12.65;;;;;;;4.84;100.00;100214.38;1786263;79;21228;-77
2022/04/16 00:53:15;;;;;;;24.23;14.68;;;;;;;4.83;100.00;100218.95;1774851;79;21739;-77
2022/04/16 00:56:22;;;;;;;24.80;13.90;;;;;;;4.83;100.00;100218.09;1788040;79;21801;-77
2022/04/16 00:59:28;;;;;;;22.37;13.70;;;;;;;4.82;100.00;100216.38;1789398;79;21180;-76
2022/04/16 01:02:35;;;;;;;21.35;13.50;;;;;;;4.81;100.00;100216.89;1790684;79;21212;-77
2022/04/16 01:05:41;;;;;;;35.15;16.40;;;;;;;4.82;100.00;100215.03;1781469;79;21208;-77
2022/04/16 01:08:51;;;;;;;28.30;15.93;;;;;;;4.83;100.00;100213.52;1778454;79;21181;-77
2022/04/16 01:11:57;;;;;;;26.97;14.98;;;;;;;4.83;100.00;100209.45;1784296;78;21798;-77
2022/04/16 01:15:03;;;;;;;29.23;16.02;;;;;;;4.84;100.00;100211.16;1775842;79;21231;-77
2022/04/16 01:18:08;;;;;;;34.03;17.17;;;;;;;4.83;100.00;100205.39;1792758;79;21188;-76
2022/04/16 01:21:14;;;;;;;22.05;14.68;;;;;;;4.84;100.00;100210.31;1775110;79;21204;-77
2022/04/16 01:24:20;;;;;;;22.67;14.58;;;;;;;4.84;100.00;100213.02;1792079;79;21188;-77
2022/04/16 01:27:25;;;;;;;25.32;15.45;;;;;;;4.81;100.00;100199.27;1780646;79;21645;-77
2022/04/16 01:30:32;;;;;;;29.48;15.53;;;;;;;4.79;100.00;100199.89;1796836;79;21156;-77
2022/04/16 01:33:38;;;;;;;21.17;13.80;;;;;;;4.77;100.00;100196.48;1790668;79;21185;-77
2022/04/16 01:36:45;;;;;;;20.25;14.45;;;;;;;4.76;100.00;100195.28;1789037;79;21170;-76
2022/04/16 01:39:51;;;;;;;25.92;15.90;;;;;;;4.72;100.00;100191.99;1793165;79;21209;-78
2022/04/16 01:42:57;;;;;;;58.35;30.05;;;;;;;4.70;100.00;100191.27;1791088;79;21785;-77
2022/04/16 01:46:04;;;;;;;31.73;18.73;;;;;;;4.67;100.00;100188.85;1791778;79;21236;-77
2022/04/16 01:49:10;;;;;;;25.45;15.75;;;;;;;4.66;100.00;100182.20;1773333;79;21181;-77
2022/04/16 01:52:16;;;;;;;23.98;17.07;;;;;;;4.64;100.00;100175.58;1776672;79;21223;-76
2022/04/16 01:55:23;;;;;;;30.68;17.05;;;;;;;4.63;100.00;100172.52;1783540;79;21237;-77
2022/04/16 01:58:29;;;;;;;25.23;15.45;;;;;;;4.61;100.00;100168.61;1792654;79;21187;-76
2022/04/16 02:01:34;;;;;;;23.57;14.70;;;;;;;4.60;100.00;100161.95;1777785;79;21196;-77
2022/04/16 02:04:40;;;;;;;22.25;14.80;;;;;;;4.60;100.00;100156.03;1795053;79;21268;-77
2022/04/16 02:07:48;;;;;;;42.13;18.62;;;;;;;4.59;100.00;100150.27;1791534;79;21255;-77
2022/04/16 02:10:56;;;;;;;28.45;18.45;;;;;;;4.60;100.00;100151.12;1781616;79;21208;-77
2022/04/16 02:14:04;;;;;;;30.08;18.70;;;;;;;4.59;100.00;100153.48;1780976;79;21229;-76
2022/04/16 02:17:11;;;;;;;31.07;17.30;;;;;;;4.59;100.00;100154.33;1795908;79;21255;-77
2022/04/16 02:20:18;;;;;;;29.05;16.93;;;;;;;4.58;100.00;100155.34;1780965;79;21284;-76
2022/04/16 02:23:26;;;;;;;28.55;16.65;;;;;;;4.57;100.00;100162.27;1781741;79;21273;-77
2022/04/16 02:26:31;;;;;;;27.80;16.50;;;;;;;4.54;100.00;100161.17;1775524;79;21189;-77
2022/04/16 02:29:39;;;;;;;29.00;18.32;;;;;;;4.52;100.00;100161.83;1785579;79;21220;-77
2022/04/16 02:32:52;;;;;;;36.53;20.55;;;;;;;4.51;100.00;100168.22;1790017;79;21209;-77
2022/04/16 02:36:01;;;;;;;30.65;17.70;;;;;;;4.51;100.00;100164.16;1779669;79;21196;-76
2022/04/16 02:39:08;;;;;;;31.90;17.92;;;;;;;4.50;100.00;100161.95;1782054;79;21181;-76
2022/04/16 02:42:13;;;;;;;25.60;16.20;;;;;;;4.51;100.00;100166.36;1785283;79;21212;-77
2022/04/16 02:48:45;;;;;;;38.00;23.30;;;;;;;4.53;100.00;100162.18;1796008;79;21169;-76
2022/04/16 02:51:51;;;;;;;36.95;18.30;;;;;;;4.52;100.00;100159.98;1796869;79;21177;-76
2022/04/16 02:54:58;;;;;;;27.07;17.30;;;;;;;4.52;100.00;100159.98;1787535;79;21217;-77
2022/04/16 02:58:04;;;;;;;25.37;14.98;;;;;;;4.54;100.00;100159.82;1788032;79;21173;-77
2022/04/16 03:01:09;;;;;;;31.87;18.52;;;;;;;4.56;100.00;100162.77;1781873;79;21216;-82
2022/04/16 03:04:17;;;;;;;28.07;17.35;;;;;;;4.57;100.00;100156.84;1789131;79;21188;-81
2022/04/16 03:07:24;;;;;;;31.87;17.60;;;;;;;4.55;100.00;100159.67;1791975;79;21216;-81
2022/04/16 03:10:30;;;;;;;35.28;18.00;;;;;;;4.57;100.00;100160.91;1790815;79;21208;-81
2022/04/16 03:13:36;;;;;;;28.02;17.57;;;;;;;4.60;100.00;100157.89;1792236;79;21181;-82
2022/04/16 03:20:05;;;;;;;30.60;17.82;;;;;;;4.63;100.00;100150.84;1789344;79;21703;-81
2022/04/16 03:23:11;;;;;;;24.72;17.07;;;;;;;4.66;100.00;100150.58;1774886;79;21168;-81
2022/04/16 03:26:16;;;;;;;31.00;18.55;;;;;;;4.66;100.00;100147.86;1783753;79;21181;-81
2022/04/16 03:29:22;;;;;;;28.92;17.50;;;;;;;4.70;100.00;100150.62;1787170;79;21236;-81
2022/04/16 03:32:27;;;;;;;33.08;20.52;;;;;;;4.75;100.00;100151.08;1781654;79;21180;-81
2022/04/16 03:35:34;;;;;;;28.55;18.40;;;;;;;4.80;100.00;100154.21;1775640;79;21240;-81
2022/04/16 03:38:40;;;;;;;31.95;19.00;;;;;;;4.85;100.00;100147.00;1774874;79;21211;-81
2022/04/16 03:41:45;;;;;;;34.58;19.98;;;;;;;4.92;100.00;100138.64;1787146;79;21252;-81
2022/04/16 03:44:51;;;;;;;35.38;20.70;;;;;;;5.00;100.00;100136.57;1785373;79;21546;-81
2022/04/16 03:48:03;;;;;;;38.58;21.60;;;;;;;5.07;100.00;100139.05;1791777;79;21180;-81
2022/04/16 03:51:07;;;;;;;;;;;;;;;5.15;100.00;100136.97;1796244;79;21233;-81
2022/04/16 04:00:47;;;;;;;29.12;18.52;;;;;;;5.34;100.00;100141.84;1793702;79;21189;-81
2022/04/16 04:03:53;;;;;;;34.15;19.07;;;;;;;5.38;100.00;100148.69;1787532;79;22477;-81
2022/04/16 04:06:59;;;;;;;29.87;18.82;;;;;;;5.45;100.00;100150.80;1769314;79;21240;-80
2022/04/16 04:10:04;;;;;;;41.30;16.97;;;;;;;5.49;100.00;100147.65;1788643;79;21860;-81
2022/04/16 04:13:10;;;;;;;28.45;16.02;;;;;;;5.55;100.00;100151.15;1785019;79;21809;-81
2022/04/16 04:16:16;;;;;;;27.73;16.60;;;;;;;5.62;100.00;100156.32;1778176;79;21725;-81
2022/04/16 04:19:21;;;;;;;29.85;16.30;;;;;;;5.69;100.00;100157.08;1787347;79;21184;-81
2022/04/16 04:22:28;;;;;;;18.90;14.53;;;;;;;5.73;100.00;100151.20;1785150;79;21747;-80
2022/04/16 04:25:33;;;;;;;20.30;15.72;;;;;;;5.77;100.00;100160.76;1795939;79;21161;-81
2022/04/16 04:28:39;;;;;;;23.02;15.40;;;;;;;5.78;100.00;100150.25;1789466;79;21165;-81
2022/04/16 04:31:46;;;;;;;24.85;15.70;;;;;;;5.84;100.00;100135.25;1796176;79;21188;-81
2022/04/16 04:34:51;;;;;;;22.27;16.62;;;;;;;5.93;100.00;100137.57;1791543;79;21184;-81
2022/04/16 04:37:59;;;;;;;27.00;17.15;;;;;;;5.98;100.00;100134.78;1790990;79;21212;-80
2022/04/16 04:41:07;;;;;;;21.05;14.70;;;;;;;6.05;100.00;100141.80;1790828;79;21757;-82
2022/04/16 04:44:11;;;;;;;26.70;15.88;;;;;;;6.10;100.00;100138.98;1773188;79;21223;-81
2022/04/16 04:47:19;;;;;;;21.42;14.18;;;;;;;6.18;100.00;100145.02;1775747;79;21199;-82
2022/04/16 04:50:25;;;;;;;20.72;15.25;;;;;;;6.23;100.00;100152.20;1794967;79;21785;-81
2022/04/16 04:53:31;;;;;;;21.80;14.13;;;;;;;6.29;100.00;100139.37;1790006;79;21185;-82
2022/04/16 04:56:36;;;;;;;20.10;14.80;;;;;;;6.35;100.00;100140.13;1787779;79;21213;-81
2022/04/16 04:59:43;;;;;;;22.25;14.93;;;;;;;6.39;100.00;100146.09;1793015;79;21768;-81
2022/04/16 05:02:53;;;;;;;19.20;13.05;;;;;;;6.43;100.00;100150.72;1793900;79;21766;-81
2022/04/16 05:05:59;;;;;;;19.30;13.90;;;;;;;6.48;100.00;100142.96;1780468;79;21288;-81
2022/04/16 05:09:06;;;;;;;20.57;13.55;;;;;;;6.49;100.00;100144.16;1781908;79;21219;-81
2022/04/16 05:12:12;;;;;;;18.55;13.72;;;;;;;6.53;100.00;100140.63;1787950;79;21225;-81
2022/04/16 05:15:18;;;;;;;19.02;12.43;;;;;;;6.55;100.00;100144.92;1790174;79;21272;-81
2022/04/16 05:18:24;;;;;;;22.80;13.90;;;;;;;6.58;100.00;100135.59;1790694;79;21751;-81
2022/04/16 05:21:29;;;;;;;17.87;12.15;;;;;;;6.64;100.00;100140.42;1790310;79;21182;-82
2022/04/16 05:24:35;;;;;;;16.97;11.68;;;;;;;6.73;100.00;100156.28;1786149;79;21855;-81
2022/04/16 05:27:42;;;;;;;19.48;11.40;;;;;;;6.75;100.00;100152.41;1784775;79;21220;-81
2022/04/16 05:30:55;;;;;;;15.75;11.10;;;;;;;6.77;100.00;100152.24;1790175;79;21188;-81
2022/04/16 05:37:23;;;;;;;16.27;12.00;;;;;;;6.85;100.00;100153.69;1788222;79;21224;-81
2022/04/16 05:40:28;;;;;;;16.62;10.90;;;;;;;6.78;100.00;100145.31;1775022;79;21812;-81
2022/04/16 05:43:34;;;;;;;15.05;10.75;;;;;;;6.70;100.00;100147.09;1795365;79;21209;-81
2022/04/16 05:46:42;;;;;;;14.73;10.65;;;;;;;6.58;100.00;100142.37;1788964;79;21208;-81
2022/04/16 05:49:47;;;;;;;16.20;11.65;;;;;;;6.56;100.00;100138.47;1791614;79;21749;-81
2022/04/16 05:52:53;;;;;;;12.70;9.78;;;;;;;6.56;100.00;100137.62;1775479;79;21219;-81
2022/04/16 05:55:58;;;;;;;12.13;10.10;;;;;;;6.66;100.00;100146.03;1775705;79;21184;-81
2022/04/16 05:59:06;;;;;;;14.68;10.78;;;;;;;6.75;100.00;100150.20;1787247;79;21251;-81
2022/04/16 06:02:13;;;;;;;16.17;12.05;;;;;;;6.84;100.00;100160.14;1774690;79;21661;-81
2022/04/16 06:05:21;;;;;;;14.87;10.68;;;;;;;6.85;100.00;100162.69;1794379;79;21192;-76
2022/04/16 06:08:28;;;;;;;13.18;10.40;;;;;;;6.92;100.00;100158.86;1788086;79;21188;-77
2022/04/16 06:11:34;;;;;;;14.00;10.95;;;;;;;7.00;100.00;100155.34;1792523;79;21190;-77
2022/04/16 06:14:40;;;;;;;15.60;11.73;;;;;;;7.01;100.00;100144.33;1779260;79;21154;-82
2022/04/16 06:17:48;;;;;;;17.32;12.25;;;;;;;7.00;100.00;100152.63;1786130;79;21216;-81
2022/04/16 06:20:54;;;;;;;16.87;11.48;;;;;;;6.99;100.00;100156.36;1782185;79;21168;-81
2022/04/16 06:24:00;;;;;;;20.25;12.40;;;;;;;7.07;100.00;100153.72;1790558;79;21216;-81
2022/04/16 06:27:06;;;;;;;16.25;11.05;;;;;;;7.16;100.00;100157.70;1785215;79;21243;-82
2022/04/16 06:30:18;;;;;;;15.43;10.55;;;;;;;7.25;100.00;100155.91;1783688;79;21192;-82
2022/04/16 06:33:25;;;;;;;17.40;12.20;;;;;;;7.38;100.00;100156.31;1774380;79;21251;-82
2022/04/16 06:36:31;;;;;;;15.40;11.05;;;;;;;7.45;100.00;100148.38;1774849;79;21172;-81
2022/04/16 06:39:37;;;;;;;15.15;11.03;;;;;;;7.59;100.00;100148.30;1777031;79;21169;-82
2022/04/16 06:42:43;;;;;;;14.45;10.93;;;;;;;7.66;100.00;100139.81;1792306;79;21782;-81
2022/04/16 06:45:51;;;;;;;17.50;12.13;;;;;;;7.65;100.00;100138.12;1782118;79;21231;-81
2022/04/16 06:48:59;;;;;;;15.32;11.50;;;;;;;7.62;100.00;100132.50;1786812;79;21189;-81
2022/04/16 06:52:05;;;;;;;20.80;12.95;;;;;;;7.66;100.00;100131.65;1783282;79;21592;-81
2022/04/16 06:55:13;;;;;;;18.42;12.33;;;;;;;7.80;100.00;100137.00;1787812;79;21197;-82
2022/04/16 06:58:19;;;;;;;21.48;13.93;;;;;;;7.97;100.00;100130.62;1773035;79;21730;-82
2022/04/16 07:01:26;;;;;;;22.37;13.32;;;;;;;8.04;100.00;100132.16;1795387;79;21177;-82
2022/04/16 07:04:33;;;;;;;20.05;13.50;;;;;;;8.13;100.00;100134.75;1795131;79;21287;-82
2022/04/16 07:07:39;;;;;;;20.48;13.43;;;;;;;8.23;100.00;100144.16;1789765;79;21181;-82
2022/04/16 07:10:44;;;;;;;23.00;13.93;;;;;;;8.42;100.00;100147.13;1786710;79;21185;-82
2022/04/16 07:13:51;;;;;;;17.20;11.15;;;;;;;8.55;100.00;100156.20;1780228;79;21733;-82
2022/04/16 07:16:57;;;;;;;17.95;12.05;;;;;;;8.64;100.00;100149.75;1785966;79;21714;-82
2022/04/16 07:20:04;;;;;;;21.12;12.75;;;;;;;8.72;100.00;100143.47;1782132;79;21211;-82
2022/04/16 07:23:09;;;;;;;26.50;13.65;;;;;;;8.76;100.00;100147.05;1791514;79;21221;-82
2022/04/16 07:26:15;;;;;;;20.10;12.18;;;;;;;8.89;100.00;100155.59;1790672;79;21664;-82
2022/04/16 07:29:23;;;;;;;17.23;11.93;;;;;;;9.00;100.00;100162.59;1771733;79;21197;-82
2022/04/16 07:32:30;;;;;;;20.80;12.30;;;;;;;9.08;100.00;100156.26;1780503;79;21268;-82
2022/04/16 07:35:38;;;;;;;16.60;10.38;;;;;;;9.15;100.00;100157.30;1773289;79;21224;-82
2022/04/16 07:38:45;;;;;;;16.87;11.90;;;;;;;9.23;100.00;100151.84;1787436;79;21193;-82
2022/04/16 07:41:51;;;;;;;19.17;11.53;;;;;;;9.38;100.00;100150.63;1783722;79;21208;-82
2022/04/16 07:44:56;;;;;;;16.23;10.88;;;;;;;9.57;100.00;100149.41;1794247;79;21256;-82
2022/04/16 07:48:03;;;;;;;17.12;10.68;;;;;;;9.73;100.00;100153.45;1786061;79;21256;-82
2022/04/16 07:51:08;;;;;;;16.73;10.48;;;;;;;9.85;100.00;100138.92;1774658;79;21506;-82
2022/04/16 07:54:13;;;;;;;18.82;10.95;;;;;;;9.97;100.00;100141.59;1790250;79;21197;-82
2022/04/16 07:57:20;;;;;;;16.25;10.28;;;;;;;10.09;100.00;100133.36;1789044;79;21212;-82
2022/04/16 08:00:28;;;;;;;17.90;11.40;;;;;;;10.12;100.00;100133.53;1792311;79;21746;-83
2022/04/16 08:03:33;;;;;;;20.80;12.00;;;;;;;10.02;100.00;100132.38;1780513;79;21236;-82
2022/04/16 08:06:39;;;;;;;21.02;10.85;;;;;;;10.02;100.00;100128.28;1788109;79;21598;-81
2022/04/16 08:09:46;;;;;;;17.50;11.25;;;;;;;10.13;100.00;100140.70;1769258;79;21267;-82
2022/04/16 08:12:52;;;;;;;14.47;9.53;;;;;;;10.32;100.00;100137.55;1787210;79;21232;-82
2022/04/16 08:15:58;;;;;;;20.25;10.58;;;;;;;10.48;100.00;100144.29;1773465;80;21166;-82
2022/04/16 08:19:05;;;;;;;15.83;10.80;;;;;;;10.60;100.00;100143.90;1700196;83;21264;-82
2022/04/16 08:22:17;;;;;;;15.93;9.95;;;;;;;10.72;100.00;100142.43;1700649;81;21184;-81
2022/04/16 08:28:29;;;;;;;19.05;9.05;;;;;;;10.88;100.00;100146.44;1716851;82;21208;-82
2022/04/16 08:31:34;;;;;;;15.18;9.60;;;;;;;11.02;100.00;100144.80;1755744;79;21238;-82
2022/04/16 08:34:42;;;;;;;14.83;9.23;;;;;;;11.11;99.34;100141.48;1765723;79;21141;-82
2022/04/16 08:37:48;;;;;;;18.20;10.68;;;;;;;11.15;99.19;100137.31;1772710;79;21149;-82
2022/04/16 08:40:55;;;;;;;14.03;8.85;;;;;;;11.36;99.10;100129.26;1760749;79;21168;-82
2022/04/16 08:44:02;;;;;;;21.12;10.48;;;;;;;11.61;99.36;100126.27;1743440;81;21224;-82
2022/04/16 08:47:08;;;;;;;16.37;9.45;;;;;;;11.75;96.75;100121.31;1762271;80;21140;-82
2022/04/16 08:50:16;;;;;;;12.13;8.55;;;;;;;11.91;95.46;100128.03;1770667;79;21193;-82
2022/04/16 08:53:23;;;;;;;13.83;8.60;;;;;;;12.07;93.91;100137.94;1761243;79;21732;-82
2022/04/16 08:56:30;;;;;;;19.40;10.30;;;;;;;12.10;92.56;100131.23;1766463;80;21171;-82
2022/04/16 08:59:35;;;;;;;17.15;9.23;;;;;;;12.10;93.47;100121.64;1759650;80;21194;-82
2022/04/16 09:02:41;;;;;;;13.25;9.20;;;;;;;12.14;92.19;100117.45;1763297;80;21200;-82
2022/04/16 09:05:48;;;;;;;17.95;9.80;;;;;;;12.16;91.69;100118.13;1751419;80;21831;-82
2022/04/16 09:08:56;;;;;;;18.32;9.20;;;;;;;12.20;92.44;100117.55;1751322;80;21250;-82
2022/04/16 09:12:02;;;;;;;16.02;8.98;;;;;;;12.34;91.37;100115.83;1759286;80;21176;-82
2022/04/16 09:15:14;;;;;;;15.10;8.48;;;;;;;12.35;90.12;100111.19;1758425;80;21200;-82
2022/04/16 09:18:20;;;;;;;17.30;9.48;;;;;;;12.31;91.71;100120.31;1757680;80;21780;-77
2022/04/16 09:21:29;;;;;;;14.20;9.50;;;;;;;12.31;90.24;100112.09;1750494;80;21226;-77
2022/04/16 09:24:35;;;;;;;15.25;8.85;;;;;;;12.22;90.96;100111.86;1758662;79;21196;-77
2022/04/16 09:27:54;;;;;;;15.28;9.70;;;;;;;12.31;92.22;100100.27;1775415;79;21188;-77
2022/04/16 09:31:04;;;;;;;;;;;;;;;12.33;90.34;100103.16;1762188;81;21169;-78
2022/04/16 09:34:09;;;;;;;17.30;9.68;;;;;;;12.16;90.56;100093.45;1786801;79;20225;-77
2022/04/16 09:37:20;;;;;;;22.62;9.65;;;;;;;12.01;91.40;100101.17;1790063;79;21810;-77
2022/04/16 09:40:26;;;;;;;17.92;9.55;;;;;;;12.00;92.22;100107.70;1789195;79;21220;-78
2022/04/16 09:43:32;;;;;;;18.57;10.70;;;;;;;12.04;91.89;100104.04;1789026;79;21813;-78
2022/04/16 09:46:38;;;;;;;18.37;10.60;;;;;;;12.02;91.44;100097.39;1749584;79;21754;-78
2022/04/16 09:49:44;;;;;;;17.48;10.32;;;;;;;11.95;92.26;100101.06;1775289;79;21219;-78
2022/04/16 09:52:51;;;;;;;17.32;10.00;;;;;;;11.98;92.67;100103.44;1775527;79;21178;-77
2022/04/16 09:55:57;;;;;;;13.85;9.80;;;;;;;12.02;93.33;100108.34;1796629;79;21211;-78
2022/04/16 09:59:02;;;;;;;21.42;9.88;;;;;;;12.17;93.83;100104.21;1788911;79;21228;-78
2022/04/16 10:02:07;;;;;;;14.93;9.63;;;;;;;12.28;92.49;100096.03;1781282;79;21220;-77
2022/04/16 10:05:13;;;;;;;15.05;8.90;;;;;;;12.38;93.09;100092.45;1750159;79;21200;-77
2022/04/16 10:08:20;;;;;;;12.07;8.20;;;;;;;12.47;91.38;100087.19;1784411;79;21157;-77
2022/04/16 10:15:21;;;;;;;17.60;9.43;;;;;;;12.52;89.67;100086.08;1751697;79;21133;-77
2022/04/16 10:18:28;;;;;;;17.05;11.08;;;;;;;12.46;90.10;100088.20;1781600;79;21196;-78
2022/04/16 10:21:40;;;;;;;14.00;9.00;;;;;;;12.55;90.56;100094.42;1793674;79;21204;-78
2022/04/16 10:25:00;;;;;;;15.32;9.63;;;;;;;12.66;89.60;100094.45;1782651;79;21840;-78
2022/04/16 10:28:15;;;;;;;19.12;9.13;;;;;;;12.71;89.51;100091.97;1793296;79;21204;-77
2022/04/16 10:31:38;;;;;;;20.77;12.18;;;;;;;12.83;88.99;100084.05;1773155;79;21228;-77
2022/04/16 10:34:44;;;;;;;22.27;8.85;;;;;;;12.97;87.43;100081.75;1788689;79;21184;-77
2022/04/16 10:37:50;;;;;;;18.12;9.68;;;;;;;12.98;86.78;100087.03;1793053;79;21165;-77
2022/04/16 10:41:05;;;;;;;13.55;8.85;;;;;;;12.92;85.72;100082.34;1775954;79;21264;-77
2022/04/16 10:44:16;;;;;;;19.92;11.33;;;;;;;12.87;86.16;100080.72;1781627;79;21161;-77
2022/04/16 10:47:23;;;;;;;15.18;9.13;;;;;;;12.89;86.57;100076.39;1795936;79;21180;-77
2022/04/16 10:50:29;;;;;;;14.23;9.25;;;;;;;12.91;87.79;100076.53;1771010;79;21193;-77
2022/04/16 10:53:42;;;;;;;13.10;9.23;;;;;;;12.94;87.76;100080.27;1793911;78;21204;-77
2022/04/16 10:56:49;;;;;;;12.70;8.45;;;;;;;12.95;87.78;100080.59;1784975;79;21144;-76
2022/04/16 10:59:58;;;;;;;14.70;8.95;;;;;;;13.04;88.34;100071.17;1787861;79;21188;-78
2022/04/16 11:03:18;;;;;;;18.62;9.43;;;;;;;13.21;88.07;100077.73;1784710;79;21215;-77
2022/04/16 11:06:24;;;;;;;13.62;8.50;;;;;;;13.39;88.40;100082.77;1774644;79;21225;-78
2022/04/16 11:09:29;;;;;;;19.32;11.22;;;;;;;13.52;87.48;100080.12;1775903;79;21200;-78
2022/04/16 11:12:36;;;;;;;16.82;10.60;;;;;;;13.55;86.83;100077.83;1785703;79;21278;-78
2022/04/16 11:15:41;;;;;;;24.30;14.25;;;;;;;13.60;88.07;100074.97;1790230;79;21176;-78
2022/04/16 11:18:52;;;;;;;22.07;10.75;;;;;;;13.64;85.94;100072.14;1795914;79;21173;-78
2022/04/16 11:21:58;;;;;;;15.13;10.95;;;;;;;13.59;85.47;100076.03;1794681;79;21216;-78
2022/04/16 11:25:04;;;;;;;13.22;10.00;;;;;;;13.58;86.11;100068.84;1758724;79;21189;-78
2022/04/16 11:34:48;;;;;;;17.35;9.95;;;;;;;13.88;86.34;100051.05;1752138;79;21157;-78
2022/04/16 11:38:02;;;;;;;17.25;10.28;;;;;;;13.99;85.03;100049.09;1774863;79;21184;-78
2022/04/16 11:41:16;;;;;;;14.18;10.58;;;;;;;14.04;85.86;100042.44;1783896;79;21209;-77
2022/04/16 11:44:23;;;;;;;15.70;9.98;;;;;;;14.05;84.35;100046.03;1785564;79;21212;-81
2022/04/16 11:47:33;;;;;;;16.80;10.18;;;;;;;13.99;83.02;100038.09;1775707;79;21264;-81
2022/04/16 11:50:40;;;;;;;16.97;10.23;;;;;;;13.96;84.68;100034.89;1782448;79;21706;-81
2022/04/16 11:53:53;;;;;;;13.43;9.83;;;;;;;14.01;84.44;100027.72;1783499;79;21220;-81
2022/04/16 11:57:01;;;;;;;16.12;10.90;;;;;;;14.06;84.11;100023.82;1747781;80;21743;-81
2022/04/16 12:00:11;;;;;;;20.85;10.40;;;;;;;14.12;83.66;100022.70;1798619;79;21192;-82
2022/04/16 12:03:18;;;;;;;19.55;11.55;;;;;;;14.19;84.05;100018.90;1791038;79;21710;-82
2022/04/16 12:06:27;;;;;;;17.40;10.93;;;;;;;14.25;83.13;100013.09;1778135;79;21173;-82
2022/04/16 12:09:33;;;;;;;19.40;11.03;;;;;;;14.25;81.97;100019.97;1780097;79;21723;-82
2022/04/16 12:12:39;;;;;;;16.23;10.40;;;;;;;14.26;82.09;100014.81;1790852;79;21232;-82
2022/04/16 12:15:59;;;;;;;20.12;11.38;;;;;;;14.29;82.71;100015.75;1777693;79;21734;-81
2022/04/16 12:19:05;;;;;;;16.62;10.93;;;;;;;14.26;81.67;100022.53;1788236;79;21232;-82
2022/04/16 12:22:12;;;;;;;15.43;9.55;;;;;;;14.24;81.96;100023.25;1758950;79;21619;-82
2022/04/16 12:25:18;;;;;;;16.32;10.05;;;;;;;14.27;81.74;100012.38;1782651;79;21823;-82
2022/04/16 12:28:28;;;;;;;15.58;10.25;;;;;;;14.25;80.93;100017.22;1791251;79;21181;-82
2022/04/16 12:31:40;;;;;;;22.13;10.38;;;;;;;14.23;80.75;100013.84;1778163;79;21191;-82
2022/04/16 12:34:47;;;;;;;17.10;9.43;;;;;;;14.17;80.75;100007.80;1798283;79;21793;-82
2022/04/16 12:37:53;;;;;;;17.12;9.90;;;;;;;14.17;81.34;99996.80;1780902;79;21224;-82
2022/04/16 12:41:12;;;;;;;16.45;10.20;;;;;;;14.23;80.61;100004.21;1796728;79;21734;-82
2022/04/16 12:44:18;;;;;;;16.62;10.78;;;;;;;14.16;81.13;99996.45;1791904;79;21185;-82
2022/04/16 12:47:24;;;;;;;15.93;9.83;;;;;;;14.12;82.77;99992.45;1791194;79;21645;-82
2022/04/16 12:50:30;;;;;;;18.50;11.65;;;;;;;14.16;82.38;99986.33;1792218;79;21141;-82
2022/04/16 12:53:37;;;;;;;22.95;12.20;;;;;;;14.25;83.70;99974.58;1778851;78;21189;-82
2022/04/16 12:56:46;;;;;;;16.80;10.50;;;;;;;14.33;82.36;99981.27;1790892;79;21145;-82
2022/04/16 12:59:51;;;;;;;12.85;9.53;;;;;;;14.39;81.53;99975.45;1796130;79;21968;-82
2022/04/16 13:02:59;;;;;;;17.90;9.60;;;;;;;14.41;81.25;99974.20;1796942;79;21209;-82
2022/04/16 13:06:05;;;;;;;15.60;9.50;;;;;;;14.40;80.90;99965.64;1790775;79;21216;-82
2022/04/16 13:09:11;;;;;;;14.95;9.25;;;;;;;14.47;81.21;99960.97;1776551;79;21196;-82
2022/04/16 13:12:19;;;;;;;15.75;10.18;;;;;;;14.44;81.10;99956.41;1785384;79;21240;-82
2022/04/16 13:15:25;;;;;;;17.87;10.28;;;;;;;14.42;80.86;99965.42;1789503;79;21221;-82
2022/04/16 13:18:31;;;;;;;18.37;9.28;;;;;;;14.39;80.90;99967.20;1789475;79;21193;-82
2022/04/16 13:21:38;;;;;;;15.05;9.83;;;;;;;14.29;80.77;99962.11;1795254;79;21679;-83
2022/04/16 13:24:45;;;;;;;13.22;9.53;;;;;;;14.21;80.85;99959.55;1786802;79;21185;-83
2022/04/16 13:27:52;;;;;;;15.32;10.05;;;;;;;14.19;81.20;99960.30;1787257;79;21225;-82
2022/04/16 13:30:58;;;;;;;18.10;10.63;;;;;;;14.14;81.43;99965.58;1794866;79;21181;-83
2022/04/16 13:34:04;;;;;;;16.17;9.75;;;;;;;14.11;82.34;99959.95;1775331;79;21171;-83
2022/04/16 13:37:10;;;;;;;16.77;10.30;;;;;;;14.16;82.54;99952.45;1792257;79;21185;-82
2022/04/16 13:43:43;;;;;;;15.38;9.68;;;;;;;14.26;82.49;99952.39;1790348;79;21240;-83
2022/04/16 13:46:50;;;;;;;19.37;11.08;;;;;;;14.30;81.50;99949.54;1783725;79;21224;-83
2022/04/16 13:49:56;;;;;;;17.32;10.05;;;;;;;14.33;81.37;99951.01;1771573;79;21164;-82
2022/04/16 13:53:02;;;;;;;19.65;10.30;;;;;;;14.36;81.92;99951.98;1784795;79;21222;-82
2022/04/16 13:56:08;;;;;;;18.65;10.68;;;;;;;14.42;83.24;99947.53;1785560;79;21565;-82
2022/04/16 13:59:13;;;;;;;18.15;11.08;;;;;;;14.46;82.40;99944.15;1773670;79;21206;-82
2022/04/16 14:02:18;;;;;;;20.15;11.93;;;;;;;14.47;82.17;99951.34;1779438;79;21236;-82
2022/04/16 14:08:49;;;;;;;18.82;10.88;;;;;;;14.48;82.42;99943.96;1795491;79;21228;-82
2022/04/16 14:11:55;;;;;;;20.65;11.57;;;;;;;14.45;82.81;99941.09;1791907;79;21208;-82
2022/04/16 14:15:00;;;;;;;16.30;10.90;;;;;;;14.43;83.06;99946.47;1795813;79;21232;-82
2022/04/16 14:18:07;;;;;;;21.00;11.63;;;;;;;14.41;84.02;99947.22;1775913;79;21196;-82
2022/04/16 14:21:15;;;;;;;21.48;12.90;;;;;;;14.39;84.57;99944.66;1794185;79;21189;-82
2022/04/16 14:24:24;;;;;;;20.80;12.37;;;;;;;14.36;84.56;99943.72;1794560;79;21169;-82
2022/04/16 14:27:30;;;;;;;32.75;11.83;;;;;;;14.33;84.42;99944.12;1788285;79;21176;-82
2022/04/16 14:30:36;;;;;;;20.62;12.50;;;;;;;14.30;85.19;99941.79;1781407;79;21244;-82
2022/04/16 14:33:43;;;;;;;24.27;13.95;;;;;;;14.25;85.58;99941.04;1786396;79;21757;-82
2022/04/16 14:36:49;;;;;;;21.75;12.53;;;;;;;14.19;86.31;99940.51;1778876;79;21157;-83
2022/04/16 14:39:55;;;;;;;25.60;14.13;;;;;;;14.15;86.87;99938.38;1781840;79;21770;-83
2022/04/16 14:43:01;;;;;;;21.97;14.33;;;;;;;14.11;87.35;99945.35;1793474;79;21177;-83
2022/04/16 14:46:06;;;;;;;28.65;17.98;;;;;;;14.03;87.68;99945.03;1794986;79;21801;-83
2022/04/16 14:49:15;;;;;;;22.67;14.85;;;;;;;13.96;88.27;99946.91;1773364;79;21196;-83